sensor_id;sensor_type;location;lat;lon;timestamp;pressure;altitude;pressure_sealevel;temperature;humidity
21730;BME280;11027;51.030;13.812;2023-07-20T00:00:47;99777.28;;;19.17;76.92
21730;BME280;11027;51.030;13.812;2023-07-20T00:03:13;99778.25;;;19.11;77.43
21730;BME280;11027;51.030;13.812;2023-07-20T00:05:43;99773.22;;;19.08;77.80
21730;BME280;11027;51.030;13.812;2023-07-20T00:08:08;99767.59;;;19.03;77.89
21730;BME280;11027;51.030;13.812;2023-07-20T00:10:33;99776.56;;;19.10;77.73
21730;BME280;11027;51.030;13.812;2023-07-20T00:12:58;99768.88;;;19.12;77.72
21730;BME280;11027;51.030;13.812;2023-07-20T00:15:24;99770.84;;;18.99;78.38
21730;BME280;11027;51.030;13.812;2023-07-20T00:17:49;99767.78;;;18.84;78.98
21730;BME280;11027;51.030;13.812;2023-07-20T00:20:14;99777.97;;;18.84;79.60
21730;BME280;11027;51.030;13.812;2023-07-20T00:22:39;99777.28;;;18.76;80.10
21730;BME280;11027;51.030;13.812;2023-07-20T00:25:05;99762.75;;;18.81;80.01
21730;BME280;11027;51.030;13.812;2023-07-20T00:27:30;99756.75;;;18.84;80.09
21730;BME280;11027;51.030;13.812;2023-07-20T00:29:55;99764.53;;;18.87;80.24
21730;BME280;11027;51.030;13.812;2023-07-20T00:32:21;99759.38;;;18.91;79.95
21730;BME280;11027;51.030;13.812;2023-07-20T00:34:46;99762.81;;;18.98;79.87
21730;BME280;11027;51.030;13.812;2023-07-20T00:37:11;99770.16;;;18.92;80.10
21730;BME280;11027;51.030;13.812;2023-07-20T00:39:37;99765.97;;;18.90;80.28
21730;BME280;11027;51.030;13.812;2023-07-20T00:42:03;99767.78;;;18.84;80.14
21730;BME280;11027;51.030;13.812;2023-07-20T00:44:28;99781.47;;;18.79;80.75
21730;BME280;11027;51.030;13.812;2023-07-20T00:46:53;99778.00;;;18.60;81.54
21730;BME280;11027;51.030;13.812;2023-07-20T00:49:19;99784.03;;;18.45;82.00
21730;BME280;11027;51.030;13.812;2023-07-20T00:51:47;99782.97;;;18.34;83.01
21730;BME280;11027;51.030;13.812;2023-07-20T00:54:14;99783.66;;;18.30;83.92
21730;BME280;11027;51.030;13.812;2023-07-20T00:56:40;99773.00;;;18.33;84.15
21730;BME280;11027;51.030;13.812;2023-07-20T00:59:05;99779.72;;;18.37;83.90
21730;BME280;11027;51.030;13.812;2023-07-20T01:01:30;99778.16;;;18.42;83.77
21730;BME280;11027;51.030;13.812;2023-07-20T01:03:56;99780.09;;;18.41;83.43
21730;BME280;11027;51.030;13.812;2023-07-20T01:06:36;99773.38;;;18.37;83.35
21730;BME280;11027;51.030;13.812;2023-07-20T01:09:21;99776.97;;;18.37;83.37
21730;BME280;11027;51.030;13.812;2023-07-20T01:11:59;99785.72;;;18.34;83.85
21730;BME280;11027;51.030;13.812;2023-07-20T01:14:29;99785.38;;;18.31;84.18
21730;BME280;11027;51.030;13.812;2023-07-20T01:16:54;99781.50;;;18.32;83.46
21730;BME280;11027;51.030;13.812;2023-07-20T01:19:20;99774.34;;;18.31;83.61
21730;BME280;11027;51.030;13.812;2023-07-20T01:21:53;99768.22;;;18.41;83.03
21730;BME280;11027;51.030;13.812;2023-07-20T01:27:31;99783.22;;;18.33;82.92
21730;BME280;11027;51.030;13.812;2023-07-20T01:30:09;99789.69;;;18.27;82.93
21730;BME280;11027;51.030;13.812;2023-07-20T01:32:39;99794.00;;;18.34;82.35
21730;BME280;11027;51.030;13.812;2023-07-20T01:35:06;99794.69;;;18.30;81.84
21730;BME280;11027;51.030;13.812;2023-07-20T01:37:33;99784.31;;;18.20;81.74
21730;BME280;11027;51.030;13.812;2023-07-20T01:39:59;99793.03;;;18.29;81.59
21730;BME280;11027;51.030;13.812;2023-07-20T01:42:25;99792.31;;;18.45;81.23
21730;BME280;11027;51.030;13.812;2023-07-20T01:44:51;99798.66;;;18.46;80.52
21730;BME280;11027;51.030;13.812;2023-07-20T01:47:17;99792.06;;;18.35;80.56
21730;BME280;11027;51.030;13.812;2023-07-20T01:49:43;99790.38;;;18.34;80.26
21730;BME280;11027;51.030;13.812;2023-07-20T01:52:08;99795.78;;;18.41;80.05
21730;BME280;11027;51.030;13.812;2023-07-20T01:54:33;99794.09;;;18.39;79.69
21730;BME280;11027;51.030;13.812;2023-07-20T01:56:58;99786.09;;;18.38;79.43
21730;BME280;11027;51.030;13.812;2023-07-20T01:59:24;99791.13;;;18.41;79.17
21730;BME280;11027;51.030;13.812;2023-07-20T02:01:49;99780.81;;;18.48;79.18
21730;BME280;11027;51.030;13.812;2023-07-20T02:04:14;99802.00;;;18.48;78.66
21730;BME280;11027;51.030;13.812;2023-07-20T02:06:39;99797.59;;;18.35;79.13
21730;BME280;11027;51.030;13.812;2023-07-20T02:09:05;99788.00;;;18.26;79.35
21730;BME280;11027;51.030;13.812;2023-07-20T02:11:30;99794.13;;;18.16;80.11
21730;BME280;11027;51.030;13.812;2023-07-20T02:13:56;99786.56;;;18.11;80.20
21730;BME280;11027;51.030;13.812;2023-07-20T02:16:21;99780.09;;;18.17;79.95
21730;BME280;11027;51.030;13.812;2023-07-20T02:18:47;99792.22;;;18.16;80.08
21730;BME280;11027;51.030;13.812;2023-07-20T02:21:12;99791.38;;;18.04;80.32
21730;BME280;11027;51.030;13.812;2023-07-20T02:23:37;99803.22;;;18.05;80.67
21730;BME280;11027;51.030;13.812;2023-07-20T02:26:02;99803.59;;;18.08;80.42
21730;BME280;11027;51.030;13.812;2023-07-20T02:28:28;99796.88;;;18.04;80.85
21730;BME280;11027;51.030;13.812;2023-07-20T02:30:54;99795.69;;;18.00;80.92
21730;BME280;11027;51.030;13.812;2023-07-20T02:33:19;99801.53;;;18.04;80.85
21730;BME280;11027;51.030;13.812;2023-07-20T02:35:45;99807.91;;;18.04;81.12
21730;BME280;11027;51.030;13.812;2023-07-20T02:38:11;99794.72;;;18.06;80.81
21730;BME280;11027;51.030;13.812;2023-07-20T02:40:36;99795.69;;;18.00;80.83
21730;BME280;11027;51.030;13.812;2023-07-20T02:43:01;99796.16;;;17.97;81.19
21730;BME280;11027;51.030;13.812;2023-07-20T02:45:27;99795.09;;;17.98;81.29
21730;BME280;11027;51.030;13.812;2023-07-20T02:47:52;99806.56;;;17.95;81.78
21730;BME280;11027;51.030;13.812;2023-07-20T02:50:17;99809.47;;;18.00;81.42
21730;BME280;11027;51.030;13.812;2023-07-20T02:52:42;99804.28;;;18.04;81.17
21730;BME280;11027;51.030;13.812;2023-07-20T02:55:08;99813.41;;;18.04;81.10
21730;BME280;11027;51.030;13.812;2023-07-20T02:57:33;99810.06;;;18.02;80.87
21730;BME280;11027;51.030;13.812;2023-07-20T02:59:58;99814.38;;;17.98;81.14
21730;BME280;11027;51.030;13.812;2023-07-20T03:02:24;99826.34;;;17.92;81.42
21730;BME280;11027;51.030;13.812;2023-07-20T03:04:50;99824.66;;;17.91;81.78
21730;BME280;11027;51.030;13.812;2023-07-20T03:07:15;99823.59;;;17.92;81.96
21730;BME280;11027;51.030;13.812;2023-07-20T03:09:40;99833.41;;;17.99;81.86
21730;BME280;11027;51.030;13.812;2023-07-20T03:12:06;99827.06;;;17.99;81.73
21730;BME280;11027;51.030;13.812;2023-07-20T03:14:32;99826.34;;;17.92;81.29
21730;BME280;11027;51.030;13.812;2023-07-20T03:16:57;99830.47;;;17.83;82.04
21730;BME280;11027;51.030;13.812;2023-07-20T03:19:22;99828.97;;;17.87;82.24
21730;BME280;11027;51.030;13.812;2023-07-20T03:21:47;99826.22;;;17.87;82.09
21730;BME280;11027;51.030;13.812;2023-07-20T03:24:13;99829.44;;;17.84;81.55
21730;BME280;11027;51.030;13.812;2023-07-20T03:26:38;99837.09;;;17.82;82.05
21730;BME280;11027;51.030;13.812;2023-07-20T03:29:04;99838.31;;;17.86;81.92
21730;BME280;11027;51.030;13.812;2023-07-20T03:31:30;99833.16;;;17.89;82.00
21730;BME280;11027;51.030;13.812;2023-07-20T03:33:55;99840.72;;;17.94;81.73
21730;BME280;11027;51.030;13.812;2023-07-20T03:36:20;99843.84;;;17.86;82.08
21730;BME280;11027;51.030;13.812;2023-07-20T03:38:45;99833.72;;;17.79;81.86
21730;BME280;11027;51.030;13.812;2023-07-20T03:41:11;99836.94;;;17.76;82.47
21730;BME280;11027;51.030;13.812;2023-07-20T03:43:37;99835.13;;;17.70;82.44
21730;BME280;11027;51.030;13.812;2023-07-20T03:46:02;99840.63;;;17.70;82.67
21730;BME280;11027;51.030;13.812;2023-07-20T03:48:31;99834.75;;;17.67;82.82
21730;BME280;11027;51.030;13.812;2023-07-20T03:50:56;99828.75;;;17.58;83.16
21730;BME280;11027;51.030;13.812;2023-07-20T03:53:22;99828.16;;;17.56;82.76
21730;BME280;11027;51.030;13.812;2023-07-20T03:55:49;99831.94;;;17.55;82.93
21730;BME280;11027;51.030;13.812;2023-07-20T03:58:15;99838.06;;;17.57;83.08
21730;BME280;11027;51.030;13.812;2023-07-20T04:00:49;99838.56;;;17.54;83.32
21730;BME280;11027;51.030;13.812;2023-07-20T04:03:15;99841.53;;;17.52;83.33
21730;BME280;11027;51.030;13.812;2023-07-20T04:05:40;99845.28;;;17.58;82.90
21730;BME280;11027;51.030;13.812;2023-07-20T04:08:06;99846.81;;;17.54;82.73
21730;BME280;11027;51.030;13.812;2023-07-20T04:10:31;99856.75;;;17.55;83.27
21730;BME280;11027;51.030;13.812;2023-07-20T04:12:56;99850.91;;;17.63;82.91
21730;BME280;11027;51.030;13.812;2023-07-20T04:15:22;99848.28;;;17.68;82.62
21730;BME280;11027;51.030;13.812;2023-07-20T04:17:47;99852.88;;;17.74;82.33
21730;BME280;11027;51.030;13.812;2023-07-20T04:20:12;99841.38;;;17.77;82.33
21730;BME280;11027;51.030;13.812;2023-07-20T04:22:38;99850.47;;;17.78;81.84
21730;BME280;11027;51.030;13.812;2023-07-20T04:25:04;99850.25;;;17.79;82.04
21730;BME280;11027;51.030;13.812;2023-07-20T04:27:29;99845.34;;;17.82;81.89
21730;BME280;11027;51.030;13.812;2023-07-20T04:29:54;99844.75;;;17.79;81.83
21730;BME280;11027;51.030;13.812;2023-07-20T04:32:19;99854.84;;;17.86;81.39
21730;BME280;11027;51.030;13.812;2023-07-20T04:34:45;99854.13;;;17.90;81.35
21730;BME280;11027;51.030;13.812;2023-07-20T04:37:10;99847.66;;;17.85;81.26
21730;BME280;11027;51.030;13.812;2023-07-20T04:39:35;99847.66;;;17.85;81.57
21730;BME280;11027;51.030;13.812;2023-07-20T04:42:00;99846.31;;;17.87;81.45
21730;BME280;11027;51.030;13.812;2023-07-20T04:44:26;99847.44;;;17.98;81.56
21730;BME280;11027;51.030;13.812;2023-07-20T04:46:51;99849.34;;;17.97;81.45
21730;BME280;11027;51.030;13.812;2023-07-20T04:49:16;99855.72;;;17.98;81.13
21730;BME280;11027;51.030;13.812;2023-07-20T04:51:42;99852.47;;;18.01;81.20
21730;BME280;11027;51.030;13.812;2023-07-20T04:54:07;99858.47;;;17.98;81.06
21730;BME280;11027;51.030;13.812;2023-07-20T04:56:32;99858.94;;;17.95;81.43
21730;BME280;11027;51.030;13.812;2023-07-20T04:58:58;99857.25;;;17.94;81.64
21730;BME280;11027;51.030;13.812;2023-07-20T05:01:24;99858.94;;;17.95;81.81
21730;BME280;11027;51.030;13.812;2023-07-20T05:03:49;99863.22;;;17.91;81.79
21730;BME280;11027;51.030;13.812;2023-07-20T05:06:15;99856.88;;;17.90;81.53
21730;BME280;11027;51.030;13.812;2023-07-20T05:08:41;99870.44;;;17.92;81.56
21730;BME280;11027;51.030;13.812;2023-07-20T05:11:06;99854.84;;;17.86;81.79
21730;BME280;11027;51.030;13.812;2023-07-20T05:13:32;99866.78;;;17.79;82.02
21730;BME280;11027;51.030;13.812;2023-07-20T05:15:58;99856.59;;;17.80;82.32
21730;BME280;11027;51.030;13.812;2023-07-20T05:18:23;99855.75;;;17.79;82.28
21730;BME280;11027;51.030;13.812;2023-07-20T05:20:49;99864.56;;;17.88;82.57
21730;BME280;11027;51.030;13.812;2023-07-20T05:23:17;99858.56;;;17.91;82.37
21730;BME280;11027;51.030;13.812;2023-07-20T05:25:42;99865.28;;;17.95;82.31
21730;BME280;11027;51.030;13.812;2023-07-20T05:28:07;99857.59;;;17.97;82.10
21730;BME280;11027;51.030;13.812;2023-07-20T05:30:33;99857.53;;;18.04;81.43
21730;BME280;11027;51.030;13.812;2023-07-20T05:32:58;99859.19;;;18.05;81.72
21730;BME280;11027;51.030;13.812;2023-07-20T05:35:23;99855.38;;;18.06;81.52
21730;BME280;11027;51.030;13.812;2023-07-20T05:37:49;99857.78;;;18.14;81.01
21730;BME280;11027;51.030;13.812;2023-07-20T05:40:15;99849.16;;;18.23;80.60
21730;BME280;11027;51.030;13.812;2023-07-20T05:42:44;99855.25;;;18.25;80.32
21730;BME280;11027;51.030;13.812;2023-07-20T05:45:09;99849.63;;;18.43;80.40
21730;BME280;11027;51.030;13.812;2023-07-20T05:47:35;99856.09;;;18.61;79.47
21730;BME280;11027;51.030;13.812;2023-07-20T05:50:00;99853.94;;;18.63;78.60
21730;BME280;11027;51.030;13.812;2023-07-20T05:52:25;99860.53;;;18.62;78.94
21730;BME280;11027;51.030;13.812;2023-07-20T05:54:51;99856.09;;;18.61;78.33
21730;BME280;11027;51.030;13.812;2023-07-20T05:57:16;99863.78;;;18.58;78.09
21730;BME280;11027;51.030;13.812;2023-07-20T05:59:41;99869.28;;;18.58;77.73
21730;BME280;11027;51.030;13.812;2023-07-20T06:02:09;99874.31;;;18.62;77.42
21730;BME280;11027;51.030;13.812;2023-07-20T06:04:35;99876.97;;;18.56;77.22
21730;BME280;11027;51.030;13.812;2023-07-20T06:07:00;99874.81;;;18.58;77.41
21730;BME280;11027;51.030;13.812;2023-07-20T06:09:25;99875.78;;;18.52;77.18
21730;BME280;11027;51.030;13.812;2023-07-20T06:11:52;99875.03;;;18.45;77.34
21730;BME280;11027;51.030;13.812;2023-07-20T06:14:17;99872.41;;;18.50;77.82
21730;BME280;11027;51.030;13.812;2023-07-20T06:16:43;99875.88;;;18.46;78.11
21730;BME280;11027;51.030;13.812;2023-07-20T06:19:08;99879.84;;;18.38;78.49
21730;BME280;11027;51.030;13.812;2023-07-20T06:21:36;99867.13;;;18.37;78.62
21730;BME280;11027;51.030;13.812;2023-07-20T06:24:01;99875.53;;;18.42;78.70
21730;BME280;11027;51.030;13.812;2023-07-20T06:26:26;99876.75;;;18.46;78.75
21730;BME280;11027;51.030;13.812;2023-07-20T06:28:52;99905.53;;;18.50;78.88
21730;BME280;11027;51.030;13.812;2023-07-20T06:31:17;99917.72;;;18.31;80.60
21730;BME280;11027;51.030;13.812;2023-07-20T06:33:42;99923.25;;;17.89;85.33
21730;BME280;11027;51.030;13.812;2023-07-20T06:36:09;99910.47;;;17.46;90.70
21730;BME280;11027;51.030;13.812;2023-07-20T06:38:35;99907.75;;;17.27;93.80
21730;BME280;11027;51.030;13.812;2023-07-20T06:41:00;99899.03;;;17.12;96.69
21730;BME280;11027;51.030;13.812;2023-07-20T06:43:25;99905.31;;;17.00;98.47
21730;BME280;11027;51.030;13.812;2023-07-20T06:45:51;99906.84;;;16.96;99.12
21730;BME280;11027;51.030;13.812;2023-07-20T06:48:18;99908.53;;;16.97;99.46
21730;BME280;11027;51.030;13.812;2023-07-20T06:50:43;99913.03;;;17.10;99.76
21730;BME280;11027;51.030;13.812;2023-07-20T06:53:09;99916.88;;;17.09;99.39
21730;BME280;11027;51.030;13.812;2023-07-20T06:55:34;99925.66;;;17.18;99.95
21730;BME280;11027;51.030;13.812;2023-07-20T06:57:59;99926.63;;;17.24;99.86
21730;BME280;11027;51.030;13.812;2023-07-20T07:00:24;99928.84;;;17.33;98.78
21730;BME280;11027;51.030;13.812;2023-07-20T07:02:50;99931.97;;;17.37;97.18
21730;BME280;11027;51.030;13.812;2023-07-20T07:05:15;99927.38;;;17.31;96.69
21730;BME280;11027;51.030;13.812;2023-07-20T07:07:41;99925.19;;;17.21;96.80
21730;BME280;11027;51.030;13.812;2023-07-20T07:10:07;99930.69;;;17.21;96.63
21730;BME280;11027;51.030;13.812;2023-07-20T07:12:33;99929.00;;;17.20;96.84
21730;BME280;11027;51.030;13.812;2023-07-20T07:14:59;99930.00;;;17.26;97.01
21730;BME280;11027;51.030;13.812;2023-07-20T07:17:25;99928.91;;;17.27;96.54
21730;BME280;11027;51.030;13.812;2023-07-20T07:19:51;99924.28;;;17.27;94.49
21730;BME280;11027;51.030;13.812;2023-07-20T07:22:19;99930.38;;;17.29;91.70
21730;BME280;11027;51.030;13.812;2023-07-20T07:24:45;99926.84;;;17.40;90.38
21730;BME280;11027;51.030;13.812;2023-07-20T07:27:10;99937.81;;;17.59;90.34
21730;BME280;11027;51.030;13.812;2023-07-20T07:29:35;99935.88;;;17.78;89.32
21730;BME280;11027;51.030;13.812;2023-07-20T07:32:00;99934.31;;;18.01;88.47
21730;BME280;11027;51.030;13.812;2023-07-20T07:34:26;99932.19;;;18.14;87.50
21730;BME280;11027;51.030;13.812;2023-07-20T07:36:52;99927.53;;;18.27;86.60
21730;BME280;11027;51.030;13.812;2023-07-20T07:39:17;99926.09;;;18.36;86.58
21730;BME280;11027;51.030;13.812;2023-07-20T07:41:42;99931.53;;;18.54;86.30
21730;BME280;11027;51.030;13.812;2023-07-20T07:44:07;99939.31;;;18.57;85.39
21730;BME280;11027;51.030;13.812;2023-07-20T07:46:33;99935.25;;;18.72;85.13
21730;BME280;11027;51.030;13.812;2023-07-20T07:48:58;99929.53;;;18.85;85.05
21730;BME280;11027;51.030;13.812;2023-07-20T07:51:23;99943.66;;;18.77;84.17
21730;BME280;11027;51.030;13.812;2023-07-20T07:53:49;99937.53;;;18.63;84.05
21730;BME280;11027;51.030;13.812;2023-07-20T07:56:15;99939.81;;;18.54;82.85
21730;BME280;11027;51.030;13.812;2023-07-20T07:58:41;99939.31;;;18.57;83.32
21730;BME280;11027;51.030;13.812;2023-07-20T08:01:07;99934.31;;;18.54;83.07
21730;BME280;11027;51.030;13.812;2023-07-20T08:03:32;99932.59;;;18.53;82.00
21730;BME280;11027;51.030;13.812;2023-07-20T08:05:57;99935.13;;;18.43;81.16
21730;BME280;11027;51.030;13.812;2023-07-20T08:08:24;99932.38;;;18.43;81.49
21730;BME280;11027;51.030;13.812;2023-07-20T08:10:52;99924.56;;;18.52;80.46
21730;BME280;11027;51.030;13.812;2023-07-20T08:13:17;99921.59;;;18.77;80.50
21730;BME280;11027;51.030;13.812;2023-07-20T08:15:51;99924.72;;;18.92;79.66
21730;BME280;11027;51.030;13.812;2023-07-20T08:18:17;99926.50;;;18.98;77.92
21730;BME280;11027;51.030;13.812;2023-07-20T08:20:46;99936.59;;;19.05;77.22
21730;BME280;11027;51.030;13.812;2023-07-20T08:23:12;99930.81;;;18.94;77.04
21730;BME280;11027;51.030;13.812;2023-07-20T08:25:37;99929.91;;;18.89;77.18
21730;BME280;11027;51.030;13.812;2023-07-20T08:28:05;99938.72;;;19.03;77.25
21730;BME280;11027;51.030;13.812;2023-07-20T08:30:43;99935.97;;;19.03;76.24
21730;BME280;11027;51.030;13.812;2023-07-20T08:33:09;99930.81;;;19.06;76.25
21730;BME280;11027;51.030;13.812;2023-07-20T08:35:35;99935.34;;;19.24;76.17
21730;BME280;11027;51.030;13.812;2023-07-20T08:38:00;99937.63;;;19.27;76.73
21730;BME280;11027;51.030;13.812;2023-07-20T08:40:26;99943.00;;;19.34;76.35
21730;BME280;11027;51.030;13.812;2023-07-20T08:42:52;99929.94;;;19.29;76.33
21730;BME280;11027;51.030;13.812;2023-07-20T08:45:19;99934.53;;;19.24;76.51
21730;BME280;11027;51.030;13.812;2023-07-20T08:47:45;99929.13;;;19.17;76.83
21730;BME280;11027;51.030;13.812;2023-07-20T08:50:13;99934.31;;;19.02;76.96
21730;BME280;11027;51.030;13.812;2023-07-20T08:52:39;99932.16;;;18.92;77.89
21730;BME280;11027;51.030;13.812;2023-07-20T08:55:04;99930.97;;;18.88;78.31
21730;BME280;11027;51.030;13.812;2023-07-20T08:57:32;99932.28;;;18.85;77.54
21730;BME280;11027;51.030;13.812;2023-07-20T08:59:59;99935.53;;;18.82;77.11
21730;BME280;11027;51.030;13.812;2023-07-20T09:02:26;99937.44;;;18.93;77.26
21730;BME280;11027;51.030;13.812;2023-07-20T09:04:52;99930.72;;;19.13;77.06
21730;BME280;11027;51.030;13.812;2023-07-20T09:07:17;99936.66;;;19.33;76.34
21730;BME280;11027;51.030;13.812;2023-07-20T09:09:45;99937.56;;;19.51;74.95
21730;BME280;11027;51.030;13.812;2023-07-20T09:12:14;99944.00;;;19.68;74.58
21730;BME280;11027;51.030;13.812;2023-07-20T09:14:43;99939.97;;;19.88;72.35
21730;BME280;11027;51.030;13.812;2023-07-20T09:17:13;99950.97;;;19.99;70.60
21730;BME280;11027;51.030;13.812;2023-07-20T09:19:38;99942.94;;;19.98;69.19
21730;BME280;11027;51.030;13.812;2023-07-20T09:22:05;99943.94;;;19.92;68.85
21730;BME280;11027;51.030;13.812;2023-07-20T09:24:31;99937.03;;;19.77;67.78
21730;BME280;11027;51.030;13.812;2023-07-20T09:26:57;99930.50;;;19.84;68.00
21730;BME280;11027;51.030;13.812;2023-07-20T09:29:22;99934.53;;;19.93;68.49
21730;BME280;11027;51.030;13.812;2023-07-20T09:34:26;99929.72;;;20.34;67.60
21730;BME280;11027;51.030;13.812;2023-07-20T09:36:52;99922.84;;;20.53;66.99
21730;BME280;11027;51.030;13.812;2023-07-20T09:39:17;99927.75;;;20.63;65.90
21730;BME280;11027;51.030;13.812;2023-07-20T09:41:43;99920.38;;;20.69;63.95
21730;BME280;11027;51.030;13.812;2023-07-20T09:44:10;99932.09;;;20.76;63.92
21730;BME280;11027;51.030;13.812;2023-07-20T09:46:44;99932.50;;;20.68;63.25
21730;BME280;11027;51.030;13.812;2023-07-20T09:49:09;99926.88;;;20.80;63.74
21730;BME280;11027;51.030;13.812;2023-07-20T09:51:35;99927.38;;;20.93;62.79
21730;BME280;11027;51.030;13.812;2023-07-20T09:54:01;99928.53;;;20.97;62.91
21730;BME280;11027;51.030;13.812;2023-07-20T09:56:30;99936.03;;;20.80;62.61
21730;BME280;11027;51.030;13.812;2023-07-20T09:58:56;99929.50;;;20.69;63.66
21730;BME280;11027;51.030;13.812;2023-07-20T10:01:21;99933.28;;;20.63;63.62
21730;BME280;11027;51.030;13.812;2023-07-20T10:03:49;99934.75;;;20.54;64.08
21730;BME280;11027;51.030;13.812;2023-07-20T10:06:20;99939.97;;;20.50;63.62
21730;BME280;11027;51.030;13.812;2023-07-20T10:08:55;99940.13;;;20.44;63.56
21730;BME280;11027;51.030;13.812;2023-07-20T10:11:22;99950.78;;;20.35;63.82
21730;BME280;11027;51.030;13.812;2023-07-20T10:13:51;99957.56;;;20.27;65.10
21730;BME280;11027;51.030;13.812;2023-07-20T10:16:25;99955.72;;;20.16;67.50
21730;BME280;11027;51.030;13.812;2023-07-20T10:18:57;99957.19;;;20.07;68.78
21730;BME280;11027;51.030;13.812;2023-07-20T10:21:24;99958.81;;;19.91;65.61
21730;BME280;11027;51.030;13.812;2023-07-20T10:23:50;99969.69;;;19.81;62.19
21730;BME280;11027;51.030;13.812;2023-07-20T10:26:15;99956.75;;;19.69;63.46
21730;BME280;11027;51.030;13.812;2023-07-20T10:28:41;99951.91;;;19.76;64.61
21730;BME280;11027;51.030;13.812;2023-07-20T10:31:11;99951.75;;;19.83;66.24
21730;BME280;11027;51.030;13.812;2023-07-20T10:33:38;99949.53;;;19.97;67.34
21730;BME280;11027;51.030;13.812;2023-07-20T10:36:04;99951.00;;;20.16;67.98
21730;BME280;11027;51.030;13.812;2023-07-20T10:41:20;99946.50;;;20.44;69.55
21730;BME280;11027;51.030;13.812;2023-07-20T10:43:47;99950.03;;;20.56;70.43
21730;BME280;11027;51.030;13.812;2023-07-20T10:46:13;99941.41;;;20.70;70.89
21730;BME280;11027;51.030;13.812;2023-07-20T10:49:00;99943.59;;;20.85;70.08
21730;BME280;11027;51.030;13.812;2023-07-20T10:51:27;99943.16;;;20.93;69.37
21730;BME280;11027;51.030;13.812;2023-07-20T10:53:53;99928.66;;;21.08;69.36
21730;BME280;11027;51.030;13.812;2023-07-20T10:56:23;99927.78;;;21.24;69.42
21730;BME280;11027;51.030;13.812;2023-07-20T10:58:55;99923.47;;;21.33;69.37
21730;BME280;11027;51.030;13.812;2023-07-20T11:01:27;99931.78;;;21.33;68.37
21730;BME280;11027;51.030;13.812;2023-07-20T11:03:58;99922.78;;;21.21;67.90
21730;BME280;11027;51.030;13.812;2023-07-20T11:09:07;99925.69;;;20.92;68.17
21730;BME280;11027;51.030;13.812;2023-07-20T11:11:37;99934.59;;;20.77;67.86
21730;BME280;11027;51.030;13.812;2023-07-20T11:14:07;99943.41;;;20.57;67.84
21730;BME280;11027;51.030;13.812;2023-07-20T11:16:34;99938.13;;;20.39;67.98
21730;BME280;11027;51.030;13.812;2023-07-20T11:18:59;99929.13;;;20.32;68.46
21730;BME280;11027;51.030;13.812;2023-07-20T11:21:25;99939.94;;;20.16;69.05
21730;BME280;11027;51.030;13.812;2023-07-20T11:23:52;99933.91;;;20.19;69.20
21730;BME280;11027;51.030;13.812;2023-07-20T11:26:17;99930.41;;;20.41;69.29
21730;BME280;11027;51.030;13.812;2023-07-20T11:28:43;99936.28;;;20.62;68.21
21730;BME280;11027;51.030;13.812;2023-07-20T11:31:08;99934.94;;;20.81;67.03
21730;BME280;11027;51.030;13.812;2023-07-20T11:33:33;99925.69;;;20.92;66.88
21730;BME280;11027;51.030;13.812;2023-07-20T11:35:59;99931.38;;;21.03;66.84
21730;BME280;11027;51.030;13.812;2023-07-20T11:38:24;99927.31;;;21.10;66.76
21730;BME280;11027;51.030;13.812;2023-07-20T11:40:49;99929.63;;;21.18;67.00
21730;BME280;11027;51.030;13.812;2023-07-20T11:43:15;99931.13;;;21.26;66.59
21730;BME280;11027;51.030;13.812;2023-07-20T11:45:40;99915.31;;;21.44;66.55
21730;BME280;11027;51.030;13.812;2023-07-20T11:48:06;99924.56;;;21.76;66.17
21730;BME280;11027;51.030;13.812;2023-07-20T11:50:32;99927.28;;;21.98;65.30
21730;BME280;11027;51.030;13.812;2023-07-20T11:52:57;99921.59;;;22.10;64.04
21730;BME280;11027;51.030;13.812;2023-07-20T11:55:23;99919.31;;;22.07;62.58
21730;BME280;11027;51.030;13.812;2023-07-20T11:58:04;99916.50;;;22.02;62.50
21730;BME280;11027;51.030;13.812;2023-07-20T12:00:31;99912.03;;;21.96;62.81
21730;BME280;11027;51.030;13.812;2023-07-20T12:02:57;99909.38;;;22.11;63.16
21730;BME280;11027;51.030;13.812;2023-07-20T12:05:22;99923.94;;;22.24;62.92
21730;BME280;11027;51.030;13.812;2023-07-20T12:07:49;99912.13;;;22.06;62.10
21730;BME280;11027;51.030;13.812;2023-07-20T12:10:24;99911.91;;;21.86;62.22
21730;BME280;11027;51.030;13.812;2023-07-20T12:12:50;99918.31;;;21.64;62.37
21730;BME280;11027;51.030;13.812;2023-07-20T12:15:25;99928.44;;;21.31;62.94
21730;BME280;11027;51.030;13.812;2023-07-20T12:17:59;99924.81;;;21.09;63.70
21730;BME280;11027;51.030;13.812;2023-07-20T12:22:56;99927.75;;;20.63;65.24
21730;BME280;11027;51.030;13.812;2023-07-20T12:25:22;99928.91;;;20.50;66.38
21730;BME280;11027;51.030;13.812;2023-07-20T12:27:48;99932.75;;;20.32;66.62
21730;BME280;11027;51.030;13.812;2023-07-20T12:30:13;99943.31;;;20.18;67.38
21730;BME280;11027;51.030;13.812;2023-07-20T12:32:39;99952.19;;;20.21;67.82
21730;BME280;11027;51.030;13.812;2023-07-20T12:35:05;99947.13;;;20.17;69.45
21730;BME280;11027;51.030;13.812;2023-07-20T12:37:31;99942.13;;;20.31;69.95
21730;BME280;11027;51.030;13.812;2023-07-20T12:39:56;99945.34;;;20.40;70.40
21730;BME280;11027;51.030;13.812;2023-07-20T12:42:21;99948.59;;;20.37;71.06
21730;BME280;11027;51.030;13.812;2023-07-20T12:44:49;99953.06;;;20.38;71.74
21730;BME280;11027;51.030;13.812;2023-07-20T12:47:16;99954.03;;;20.32;72.08
21730;BME280;11027;51.030;13.812;2023-07-20T12:49:41;99951.53;;;20.30;72.80
21730;BME280;11027;51.030;13.812;2023-07-20T12:52:10;99960.56;;;20.26;72.95
21730;BME280;11027;51.030;13.812;2023-07-20T12:54:35;99966.63;;;19.94;70.57
21730;BME280;11027;51.030;13.812;2023-07-20T12:57:00;99969.53;;;19.87;71.23
21730;BME280;11027;51.030;13.812;2023-07-20T12:59:27;99982.09;;;19.78;72.00